sensor_id;sensor_type;location;lat;lon;timestamp;pressure;altitude;pressure_sealevel;temperature;humidity
21904;BME280;11116;51.554;7.812;2022-09-29T00:02:09;99144.81;;;7.54;100.00
21904;BME280;11116;51.554;7.812;2022-09-29T00:04:36;99147.19;;;7.48;100.00
21904;BME280;11116;51.554;7.812;2022-09-29T00:07:03;99145.13;;;7.42;100.00
21904;BME280;11116;51.554;7.812;2022-09-29T00:09:30;99142.59;;;7.50;100.00
21904;BME280;11116;51.554;7.812;2022-09-29T00:11:59;99139.69;;;7.53;100.00
21904;BME280;11116;51.554;7.812;2022-09-29T00:14:26;99143.16;;;7.53;100.00
21904;BME280;11116;51.554;7.812;2022-09-29T00:16:53;99145.22;;;7.50;100.00
21904;BME280;11116;51.554;7.812;2022-09-29T00:19:20;99146.94;;;7.41;100.00
21904;BME280;11116;51.554;7.812;2022-09-29T00:21:47;99138.25;;;7.68;100.00
21904;BME280;11116;51.554;7.812;2022-09-29T00:24:13;99140.69;;;7.69;100.00
21904;BME280;11116;51.554;7.812;2022-09-29T00:26:40;99137.97;;;7.61;100.00
21904;BME280;11116;51.554;7.812;2022-09-29T00:29:12;99145.41;;;7.02;100.00
21904;BME280;11116;51.554;7.812;2022-09-29T00:31:39;99147.50;;;6.89;100.00
21904;BME280;11116;51.554;7.812;2022-09-29T00:34:06;99153.88;;;6.67;100.00
21904;BME280;11116;51.554;7.812;2022-09-29T00:36:33;99155.81;;;6.46;100.00
21904;BME280;11116;51.554;7.812;2022-09-29T00:39:00;99154.28;;;6.14;100.00
21904;BME280;11116;51.554;7.812;2022-09-29T00:41:28;99158.16;;;6.20;100.00
21904;BME280;11116;51.554;7.812;2022-09-29T00:43:58;99150.69;;;6.06;100.00
21904;BME280;11116;51.554;7.812;2022-09-29T00:46:33;99147.69;;;6.20;100.00
21904;BME280;11116;51.554;7.812;2022-09-29T00:49:04;99148.63;;;6.57;100.00
21904;BME280;11116;51.554;7.812;2022-09-29T00:51:33;99159.66;;;6.70;100.00
21904;BME280;11116;51.554;7.812;2022-09-29T00:54:05;99160.34;;;6.92;100.00
21904;BME280;11116;51.554;7.812;2022-09-29T00:56:34;99148.88;;;6.83;100.00
21904;BME280;11116;51.554;7.812;2022-09-29T00:59:05;99151.00;;;6.60;100.00
21904;BME280;11116;51.554;7.812;2022-09-29T01:01:35;99152.25;;;6.47;100.00
21904;BME280;11116;51.554;7.812;2022-09-29T01:04:07;99156.66;;;6.37;100.00
21904;BME280;11116;51.554;7.812;2022-09-29T01:06:38;99151.13;;;6.20;100.00
21904;BME280;11116;51.554;7.812;2022-09-29T01:09:09;99150.69;;;6.06;100.00
21904;BME280;11116;51.554;7.812;2022-09-29T01:11:37;99148.19;;;5.95;100.00
21904;BME280;11116;51.554;7.812;2022-09-29T01:14:06;99150.66;;;5.87;100.00
21904;BME280;11116;51.554;7.812;2022-09-29T01:16:36;99151.16;;;5.81;100.00
21904;BME280;11116;51.554;7.812;2022-09-29T01:19:08;99151.41;;;5.68;100.00
21904;BME280;11116;51.554;7.812;2022-09-29T01:21:44;99154.19;;;5.76;100.00
21904;BME280;11116;51.554;7.812;2022-09-29T01:27:18;99164.66;;;5.76;100.00
21904;BME280;11116;51.554;7.812;2022-09-29T01:30:00;99164.34;;;5.69;100.00
21904;BME280;11116;51.554;7.812;2022-09-29T01:32:41;99160.44;;;5.54;100.00
21904;BME280;11116;51.554;7.812;2022-09-29T01:35:15;99170.50;;;5.49;100.00
21904;BME280;11116;51.554;7.812;2022-09-29T01:37:59;99176.66;;;5.39;100.00
21904;BME280;11116;51.554;7.812;2022-09-29T01:40:34;99179.19;;;5.50;100.00
21904;BME280;11116;51.554;7.812;2022-09-29T01:43:07;99178.34;;;5.49;100.00
21904;BME280;11116;51.554;7.812;2022-09-29T01:45:37;99175.78;;;5.59;100.00
21904;BME280;11116;51.554;7.812;2022-09-29T01:48:10;99174.25;;;5.56;100.00
21904;BME280;11116;51.554;7.812;2022-09-29T01:50:42;99176.19;;;5.64;100.00
21904;BME280;11116;51.554;7.812;2022-09-29T01:53:13;99179.00;;;5.82;100.00
21904;BME280;11116;51.554;7.812;2022-09-29T01:55:43;99183.94;;;5.75;100.00
21904;BME280;11116;51.554;7.812;2022-09-29T01:58:15;99177.97;;;5.63;100.00
21904;BME280;11116;51.554;7.812;2022-09-29T02:00:47;99183.09;;;5.65;100.00
21904;BME280;11116;51.554;7.812;2022-09-29T02:03:19;99177.81;;;5.55;100.00
21904;BME280;11116;51.554;7.812;2022-09-29T02:05:50;99179.06;;;5.61;100.00
21904;BME280;11116;51.554;7.812;2022-09-29T02:08:21;99166.88;;;5.41;100.00
21904;BME280;11116;51.554;7.812;2022-09-29T02:10:52;99174.63;;;5.42;100.00
21904;BME280;11116;51.554;7.812;2022-09-29T02:13:22;99178.13;;;5.32;100.00
21904;BME280;11116;51.554;7.812;2022-09-29T02:15:53;99176.50;;;5.31;100.00
21904;BME280;11116;51.554;7.812;2022-09-29T02:18:27;99185.63;;;5.16;100.00
21904;BME280;11116;51.554;7.812;2022-09-29T02:20:57;99187.66;;;5.12;100.00
21904;BME280;11116;51.554;7.812;2022-09-29T02:23:24;99182.69;;;5.09;100.00
21904;BME280;11116;51.554;7.812;2022-09-29T02:25:51;99181.84;;;5.08;100.00
21904;BME280;11116;51.554;7.812;2022-09-29T02:28:19;99182.00;;;5.07;100.00
21904;BME280;11116;51.554;7.812;2022-09-29T02:30:48;99184.72;;;5.05;100.00
21904;BME280;11116;51.554;7.812;2022-09-29T02:33:17;99190.81;;;5.06;100.00
21904;BME280;11116;51.554;7.812;2022-09-29T02:35:54;99188.25;;;4.95;100.00
21904;BME280;11116;51.554;7.812;2022-09-29T02:38:29;99190.78;;;4.85;100.00
21904;BME280;11116;51.554;7.812;2022-09-29T02:41:04;99188.75;;;4.89;100.00
21904;BME280;11116;51.554;7.812;2022-09-29T02:43:52;99186.28;;;4.67;100.00
21904;BME280;11116;51.554;7.812;2022-09-29T02:46:40;99186.03;;;4.70;100.00
21904;BME280;11116;51.554;7.812;2022-09-29T02:49:27;99200.13;;;4.78;100.00
21904;BME280;11116;51.554;7.812;2022-09-29T02:52:01;99192.19;;;4.69;100.00
21904;BME280;11116;51.554;7.812;2022-09-29T02:54:45;99197.03;;;4.73;100.00
21904;BME280;11116;51.554;7.812;2022-09-29T02:57:19;99190.72;;;4.55;100.00
21904;BME280;11116;51.554;7.812;2022-09-29T02:59:54;99189.63;;;4.57;100.00
21904;BME280;11116;51.554;7.812;2022-09-29T03:02:23;99189.88;;;4.54;100.00
21904;BME280;11116;51.554;7.812;2022-09-29T03:04:51;99197.81;;;4.64;100.00
21904;BME280;11116;51.554;7.812;2022-09-29T03:07:20;99195.41;;;4.72;100.00
21904;BME280;11116;51.554;7.812;2022-09-29T03:09:47;99202.00;;;4.76;100.00
21904;BME280;11116;51.554;7.812;2022-09-29T03:12:14;99199.16;;;4.79;100.00
21904;BME280;11116;51.554;7.812;2022-09-29T03:14:42;99206.38;;;4.87;100.00
21904;BME280;11116;51.554;7.812;2022-09-29T03:17:09;99207.91;;;4.89;100.00
21904;BME280;11116;51.554;7.812;2022-09-29T03:19:36;99198.84;;;4.73;100.00
21904;BME280;11116;51.554;7.812;2022-09-29T03:22:03;99200.28;;;4.66;100.00
21904;BME280;11116;51.554;7.812;2022-09-29T03:24:32;99199.22;;;4.68;100.00
21904;BME280;11116;51.554;7.812;2022-09-29T03:26:59;99203.06;;;4.53;100.00
21904;BME280;11116;51.554;7.812;2022-09-29T03:29:25;99198.69;;;4.53;100.00
21904;BME280;11116;51.554;7.812;2022-09-29T03:31:52;99203.88;;;4.85;100.00
21904;BME280;11116;51.554;7.812;2022-09-29T03:34:19;99193.22;;;4.98;100.00
21904;BME280;11116;51.554;7.812;2022-09-29T03:36:46;99198.84;;;4.93;100.00
21904;BME280;11116;51.554;7.812;2022-09-29T03:39:13;99202.75;;;4.78;100.00
21904;BME280;11116;51.554;7.812;2022-09-29T03:41:41;99206.09;;;4.69;100.00
21904;BME280;11116;51.554;7.812;2022-09-29T03:44:08;99202.97;;;4.54;100.00
21904;BME280;11116;51.554;7.812;2022-09-29T03:46:37;99208.34;;;4.42;100.00
21904;BME280;11116;51.554;7.812;2022-09-29T03:49:04;99203.22;;;4.51;100.00
21904;BME280;11116;51.554;7.812;2022-09-29T03:51:31;99202.28;;;4.52;100.00
21904;BME280;11116;51.554;7.812;2022-09-29T03:53:58;99211.34;;;4.37;100.00
21904;BME280;11116;51.554;7.812;2022-09-29T03:56:25;99203.66;;;4.25;100.00
21904;BME280;11116;51.554;7.812;2022-09-29T03:58:53;99204.63;;;4.13;100.00
21904;BME280;11116;51.554;7.812;2022-09-29T04:01:20;99212.50;;;4.02;100.00
21904;BME280;11116;51.554;7.812;2022-09-29T04:03:47;99212.47;;;4.13;100.00
21904;BME280;11116;51.554;7.812;2022-09-29T04:06:14;99210.69;;;4.13;100.00
21904;BME280;11116;51.554;7.812;2022-09-29T04:08:41;99203.09;;;4.10;100.00
21904;BME280;11116;51.554;7.812;2022-09-29T04:11:08;99218.06;;;4.08;100.00
21904;BME280;11116;51.554;7.812;2022-09-29T04:13:35;99215.06;;;4.13;100.00
21904;BME280;11116;51.554;7.812;2022-09-29T04:16:05;99219.75;;;4.09;100.00
21904;BME280;11116;51.554;7.812;2022-09-29T04:18:32;99228.53;;;4.08;100.00
21904;BME280;11116;51.554;7.812;2022-09-29T04:20:59;99224.63;;;4.03;100.00
21904;BME280;11116;51.554;7.812;2022-09-29T04:23:30;99225.22;;;4.06;100.00
21904;BME280;11116;51.554;7.812;2022-09-29T04:25:58;99225.44;;;4.03;100.00
21904;BME280;11116;51.554;7.812;2022-09-29T04:28:26;99224.41;;;3.94;100.00
21904;BME280;11116;51.554;7.812;2022-09-29T04:30:53;99225.78;;;3.98;100.00
21904;BME280;11116;51.554;7.812;2022-09-29T04:33:21;99227.94;;;4.05;100.00
21904;BME280;11116;51.554;7.812;2022-09-29T04:35:48;99237.78;;;4.01;100.00
21904;BME280;11116;51.554;7.812;2022-09-29T04:38:15;99240.38;;;4.01;100.00
21904;BME280;11116;51.554;7.812;2022-09-29T04:40:42;99234.03;;;3.83;100.00
21904;BME280;11116;51.554;7.812;2022-09-29T04:43:09;99239.81;;;3.75;100.00
21904;BME280;11116;51.554;7.812;2022-09-29T04:45:36;99240.91;;;3.73;100.00
21904;BME280;11116;51.554;7.812;2022-09-29T04:48:03;99238.41;;;3.71;100.00
21904;BME280;11116;51.554;7.812;2022-09-29T04:50:32;99243.41;;;3.74;100.00
21904;BME280;11116;51.554;7.812;2022-09-29T04:52:59;99243.75;;;3.70;100.00
21904;BME280;11116;51.554;7.812;2022-09-29T04:55:26;99249.09;;;3.79;100.00
21904;BME280;11116;51.554;7.812;2022-09-29T04:57:53;99246.81;;;3.75;100.00
21904;BME280;11116;51.554;7.812;2022-09-29T05:00:20;99245.03;;;3.86;100.00
21904;BME280;11116;51.554;7.812;2022-09-29T05:02:47;99244.09;;;3.76;100.00
21904;BME280;11116;51.554;7.812;2022-09-29T05:05:14;99243.97;;;3.67;100.00
21904;BME280;11116;51.554;7.812;2022-09-29T05:07:42;99249.66;;;3.72;100.00
21904;BME280;11116;51.554;7.812;2022-09-29T05:10:10;99248.03;;;3.60;100.00
21904;BME280;11116;51.554;7.812;2022-09-29T05:12:37;99257.03;;;3.67;100.00
21904;BME280;11116;51.554;7.812;2022-09-29T05:15:05;99253.72;;;3.65;100.00
21904;BME280;11116;51.554;7.812;2022-09-29T05:17:32;99247.19;;;3.70;100.00
21904;BME280;11116;51.554;7.812;2022-09-29T05:19:59;99262.50;;;3.75;100.00
21904;BME280;11116;51.554;7.812;2022-09-29T05:22:26;99254.19;;;3.81;100.00
21904;BME280;11116;51.554;7.812;2022-09-29T05:24:54;99264.88;;;3.78;100.00
21904;BME280;11116;51.554;7.812;2022-09-29T05:27:21;99265.84;;;3.77;100.00
21904;BME280;11116;51.554;7.812;2022-09-29T05:29:48;99268.91;;;3.82;100.00
21904;BME280;11116;51.554;7.812;2022-09-29T05:32:15;99275.31;;;3.78;100.00
21904;BME280;11116;51.554;7.812;2022-09-29T05:34:42;99275.06;;;3.59;100.00
21904;BME280;11116;51.554;7.812;2022-09-29T05:37:09;99279.94;;;3.63;100.00
21904;BME280;11116;51.554;7.812;2022-09-29T05:39:37;99276.00;;;3.69;100.00
21904;BME280;11116;51.554;7.812;2022-09-29T05:42:09;99287.53;;;3.66;100.00
21904;BME280;11116;51.554;7.812;2022-09-29T05:44:37;99287.44;;;3.79;100.00
21904;BME280;11116;51.554;7.812;2022-09-29T05:47:04;99286.50;;;3.80;100.00
21904;BME280;11116;51.554;7.812;2022-09-29T05:49:31;99286.13;;;3.84;100.00
21904;BME280;11116;51.554;7.812;2022-09-29T05:51:59;99287.19;;;3.71;100.00
21904;BME280;11116;51.554;7.812;2022-09-29T05:54:26;99290.28;;;3.76;100.00
21904;BME280;11116;51.554;7.812;2022-09-29T05:56:53;99292.75;;;3.77;100.00
21904;BME280;11116;51.554;7.812;2022-09-29T05:59:22;99298.81;;;3.89;100.00
21904;BME280;11116;51.554;7.812;2022-09-29T06:01:49;99290.75;;;3.92;100.00
21904;BME280;11116;51.554;7.812;2022-09-29T06:04:16;99293.47;;;4.13;100.00
21904;BME280;11116;51.554;7.812;2022-09-29T06:06:43;99295.50;;;4.20;100.00
21904;BME280;11116;51.554;7.812;2022-09-29T06:09:11;99295.81;;;4.27;100.00
21904;BME280;11116;51.554;7.812;2022-09-29T06:11:39;99295.94;;;4.36;100.00
21904;BME280;11116;51.554;7.812;2022-09-29T06:14:05;99295.34;;;4.44;100.00
21904;BME280;11116;51.554;7.812;2022-09-29T06:16:34;99299.97;;;4.40;100.00
21904;BME280;11116;51.554;7.812;2022-09-29T06:19:01;99285.34;;;4.49;100.00
21904;BME280;11116;51.554;7.812;2022-09-29T06:21:31;99291.72;;;4.67;100.00
21904;BME280;11116;51.554;7.812;2022-09-29T06:24:00;99289.19;;;4.66;100.00
21904;BME280;11116;51.554;7.812;2022-09-29T06:26:27;99290.34;;;4.84;100.00
21904;BME280;11116;51.554;7.812;2022-09-29T06:28:54;99290.16;;;4.96;100.00
21904;BME280;11116;51.554;7.812;2022-09-29T06:31:23;99293.19;;;5.12;100.00
21904;BME280;11116;51.554;7.812;2022-09-29T06:33:56;99292.63;;;5.30;100.00
21904;BME280;11116;51.554;7.812;2022-09-29T06:36:25;99301.41;;;5.29;100.00
21904;BME280;11116;51.554;7.812;2022-09-29T06:39:13;99301.50;;;5.38;100.00
21904;BME280;11116;51.554;7.812;2022-09-29T06:41:41;99301.16;;;5.32;100.00
21904;BME280;11116;51.554;7.812;2022-09-29T06:44:09;99302.41;;;5.48;100.00
21904;BME280;11116;51.554;7.812;2022-09-29T06:46:38;99300.81;;;5.66;100.00
21904;BME280;11116;51.554;7.812;2022-09-29T06:49:07;99298.84;;;5.80;100.00
21904;BME280;11116;51.554;7.812;2022-09-29T06:51:34;99305.59;;;5.82;100.00
21904;BME280;11116;51.554;7.812;2022-09-29T06:54:01;99312.41;;;6.15;100.00
21904;BME280;11116;51.554;7.812;2022-09-29T06:56:28;99312.19;;;6.37;100.00
21904;BME280;11116;51.554;7.812;2022-09-29T06:58:55;99309.19;;;6.51;100.00
21904;BME280;11116;51.554;7.812;2022-09-29T07:01:22;99310.59;;;6.65;100.00
21904;BME280;11116;51.554;7.812;2022-09-29T07:03:49;99312.00;;;6.69;100.00
21904;BME280;11116;51.554;7.812;2022-09-29T07:06:17;99305.66;;;7.00;100.00
21904;BME280;11116;51.554;7.812;2022-09-29T07:08:44;99314.63;;;7.17;100.00
21904;BME280;11116;51.554;7.812;2022-09-29T07:11:11;99303.03;;;7.19;100.00
21904;BME280;11116;51.554;7.812;2022-09-29T07:13:38;99307.72;;;7.45;100.00
21904;BME280;11116;51.554;7.812;2022-09-29T07:16:05;99309.63;;;7.52;100.00
21904;BME280;11116;51.554;7.812;2022-09-29T07:18:33;99309.78;;;7.60;100.00
21904;BME280;11116;51.554;7.812;2022-09-29T07:21:02;99311.41;;;7.71;100.00
21904;BME280;11116;51.554;7.812;2022-09-29T07:23:31;99316.94;;;8.05;100.00
21904;BME280;11116;51.554;7.812;2022-09-29T07:25:58;99311.34;;;8.27;100.00
21904;BME280;11116;51.554;7.812;2022-09-29T07:28:25;99299.41;;;8.60;100.00
21904;BME280;11116;51.554;7.812;2022-09-29T07:30:59;99297.00;;;8.66;100.00
21904;BME280;11116;51.554;7.812;2022-09-29T07:33:26;99300.69;;;8.56;100.00
21904;BME280;11116;51.554;7.812;2022-09-29T07:35:54;99299.13;;;8.80;100.00
21904;BME280;11116;51.554;7.812;2022-09-29T07:38:22;99306.13;;;8.72;100.00
21904;BME280;11116;51.554;7.812;2022-09-29T07:40:50;99303.19;;;8.92;100.00
21904;BME280;11116;51.554;7.812;2022-09-29T07:43:17;99305.91;;;9.00;100.00
21904;BME280;11116;51.554;7.812;2022-09-29T07:45:46;99298.50;;;9.39;100.00
21904;BME280;11116;51.554;7.812;2022-09-29T07:48:13;99309.13;;;9.30;100.00
21904;BME280;11116;51.554;7.812;2022-09-29T07:50:40;99297.91;;;9.45;100.00
21904;BME280;11116;51.554;7.812;2022-09-29T07:53:08;99305.47;;;9.23;100.00
21904;BME280;11116;51.554;7.812;2022-09-29T07:55:35;99301.72;;;9.51;100.00
21904;BME280;11116;51.554;7.812;2022-09-29T07:58:04;99306.13;;;9.68;100.00
21904;BME280;11116;51.554;7.812;2022-09-29T08:00:31;99308.28;;;9.73;100.00
21904;BME280;11116;51.554;7.812;2022-09-29T08:02:59;99302.44;;;9.87;100.00
21904;BME280;11116;51.554;7.812;2022-09-29T08:05:28;99305.06;;;10.12;99.43
21904;BME280;11116;51.554;7.812;2022-09-29T08:07:58;99309.69;;;10.44;98.38
21904;BME280;11116;51.554;7.812;2022-09-29T08:10:25;99305.44;;;10.59;96.52
21904;BME280;11116;51.554;7.812;2022-09-29T08:12:52;99305.44;;;10.59;96.39
21904;BME280;11116;51.554;7.812;2022-09-29T08:15:23;99312.25;;;10.70;95.84
21904;BME280;11116;51.554;7.812;2022-09-29T08:17:51;99297.75;;;10.82;94.27
21904;BME280;11116;51.554;7.812;2022-09-29T08:20:18;99306.72;;;11.13;92.96
21904;BME280;11116;51.554;7.812;2022-09-29T08:22:47;99304.88;;;11.06;91.61
21904;BME280;11116;51.554;7.812;2022-09-29T08:25:14;99304.22;;;11.44;90.64
21904;BME280;11116;51.554;7.812;2022-09-29T08:27:41;99305.72;;;11.39;89.99
21904;BME280;11116;51.554;7.812;2022-09-29T08:30:10;99310.53;;;11.51;89.00
21904;BME280;11116;51.554;7.812;2022-09-29T08:32:39;99312.66;;;11.07;89.77
21904;BME280;11116;51.554;7.812;2022-09-29T08:35:06;99319.59;;;11.41;91.43
21904;BME280;11116;51.554;7.812;2022-09-29T08:37:34;99321.22;;;11.09;90.98
21904;BME280;11116;51.554;7.812;2022-09-29T08:40:01;99331.00;;;11.33;91.50
21904;BME280;11116;51.554;7.812;2022-09-29T08:42:45;99331.19;;;11.80;89.96
21904;BME280;11116;51.554;7.812;2022-09-29T08:45:19;99334.16;;;11.77;89.78
21904;BME280;11116;51.554;7.812;2022-09-29T08:47:50;99337.13;;;11.33;90.88
21904;BME280;11116;51.554;7.812;2022-09-29T08:50:24;99337.28;;;11.48;91.45
21904;BME280;11116;51.554;7.812;2022-09-29T08:52:53;99340.75;;;11.16;91.78
21904;BME280;11116;51.554;7.812;2022-09-29T08:55:27;99338.44;;;11.13;92.26
21904;BME280;11116;51.554;7.812;2022-09-29T08:58:00;99349.19;;;11.60;92.33
21904;BME280;11116;51.554;7.812;2022-09-29T09:00:33;99344.38;;;12.04;91.24
21904;BME280;11116;51.554;7.812;2022-09-29T09:03:20;99343.22;;;11.90;90.53
21904;BME280;11116;51.554;7.812;2022-09-29T09:06:09;99338.09;;;11.65;90.97
21904;BME280;11116;51.554;7.812;2022-09-29T09:08:56;99352.00;;;12.07;91.29
21904;BME280;11116;51.554;7.812;2022-09-29T09:11:35;99338.63;;;12.48;89.32
21904;BME280;11116;51.554;7.812;2022-09-29T09:14:17;99342.28;;;12.77;87.48
21904;BME280;11116;51.554;7.812;2022-09-29T09:16:53;99341.03;;;12.57;87.45
21904;BME280;11116;51.554;7.812;2022-09-29T09:20:01;99336.50;;;12.35;87.35
21904;BME280;11116;51.554;7.812;2022-09-29T09:22:37;99344.44;;;12.35;87.10
21904;BME280;11116;51.554;7.812;2022-09-29T09:25:18;99340.72;;;12.91;85.96
21904;BME280;11116;51.554;7.812;2022-09-29T09:27:50;99341.84;;;12.66;86.28
21904;BME280;11116;51.554;7.812;2022-09-29T09:30:21;99347.84;;;12.90;86.65
21904;BME280;11116;51.554;7.812;2022-09-29T09:32:51;99341.41;;;11.99;84.93
21904;BME280;11116;51.554;7.812;2022-09-29T09:35:30;99349.34;;;12.07;86.30
21904;BME280;11116;51.554;7.812;2022-09-29T09:38:00;99347.38;;;11.45;87.22
21904;BME280;11116;51.554;7.812;2022-09-29T09:40:35;99353.47;;;12.02;88.89
21904;BME280;11116;51.554;7.812;2022-09-29T09:43:10;99351.38;;;12.44;87.78
21904;BME280;11116;51.554;7.812;2022-09-29T09:45:42;99348.00;;;12.97;86.44
21904;BME280;11116;51.554;7.812;2022-09-29T09:48:17;99335.44;;;12.83;83.70
21904;BME280;11116;51.554;7.812;2022-09-29T09:50:46;99335.19;;;13.31;83.64
21904;BME280;11116;51.554;7.812;2022-09-29T09:53:18;99323.53;;;13.78;81.13
21904;BME280;11116;51.554;7.812;2022-09-29T09:55:52;99332.28;;;13.64;79.80
21904;BME280;11116;51.554;7.812;2022-09-29T09:58:59;99331.31;;;13.94;77.66
21904;BME280;11116;51.554;7.812;2022-09-29T10:01:28;99333.19;;;14.52;77.25
21904;BME280;11116;51.554;7.812;2022-09-29T10:03:56;99329.69;;;14.51;75.05
21904;BME280;11116;51.554;7.812;2022-09-29T10:06:26;99328.34;;;14.41;74.50
21904;BME280;11116;51.554;7.812;2022-09-29T10:08:53;99334.47;;;14.27;75.28
21904;BME280;11116;51.554;7.812;2022-09-29T10:11:22;99323.81;;;14.70;74.09
21904;BME280;11116;51.554;7.812;2022-09-29T10:13:57;99333.97;;;13.94;75.27
21904;BME280;11116;51.554;7.812;2022-09-29T10:16:29;99336.81;;;13.92;76.25
21904;BME280;11116;51.554;7.812;2022-09-29T10:18:57;99336.53;;;14.02;77.07
21904;BME280;11116;51.554;7.812;2022-09-29T10:21:36;99337.50;;;13.12;77.45
21904;BME280;11116;51.554;7.812;2022-09-29T10:24:03;99346.38;;;13.41;78.18
21904;BME280;11116;51.554;7.812;2022-09-29T10:26:35;99344.09;;;13.61;77.28
21904;BME280;11116;51.554;7.812;2022-09-29T10:29:17;99338.06;;;13.44;75.96
21904;BME280;11116;51.554;7.812;2022-09-29T10:31:58;99346.69;;;13.46;76.84
21904;BME280;11116;51.554;7.812;2022-09-29T10:34:27;99341.06;;;14.16;75.36
21904;BME280;11116;51.554;7.812;2022-09-29T10:36:57;99332.59;;;14.86;74.00
21904;BME280;11116;51.554;7.812;2022-09-29T10:39:38;99337.50;;;14.38;73.25
21904;BME280;11116;51.554;7.812;2022-09-29T10:42:15;99337.06;;;15.21;72.49
21904;BME280;11116;51.554;7.812;2022-09-29T10:44:49;99341.00;;;14.53;73.17
21904;BME280;11116;51.554;7.812;2022-09-29T10:47:19;99353.09;;;13.89;74.49
21904;BME280;11116;51.554;7.812;2022-09-29T10:49:46;99346.56;;;13.77;76.00
21904;BME280;11116;51.554;7.812;2022-09-29T10:52:23;99349.28;;;13.54;75.53
21904;BME280;11116;51.554;7.812;2022-09-29T10:54:54;99363.63;;;12.84;76.33
21904;BME280;11116;51.554;7.812;2022-09-29T10:57:24;99362.25;;;13.87;76.69
21904;BME280;11116;51.554;7.812;2022-09-29T10:59:53;99353.31;;;13.65;73.88
21904;BME280;11116;51.554;7.812;2022-09-29T11:02:24;99348.28;;;14.22;71.42
21904;BME280;11116;51.554;7.812;2022-09-29T11:04:59;99343.59;;;14.83;68.40
21904;BME280;11116;51.554;7.812;2022-09-29T11:07:28;99354.34;;;14.31;70.13
21904;BME280;11116;51.554;7.812;2022-09-29T11:09:56;99357.38;;;13.53;70.83
21904;BME280;11116;51.554;7.812;2022-09-29T11:12:33;99364.91;;;13.49;73.50
21904;BME280;11116;51.554;7.812;2022-09-29T11:15:22;99363.88;;;13.50;71.55
21904;BME280;11116;51.554;7.812;2022-09-29T11:17:50;99361.94;;;14.48;69.68
21904;BME280;11116;51.554;7.812;2022-09-29T11:20:18;99362.91;;;14.03;70.51
21904;BME280;11116;51.554;7.812;2022-09-29T11:23:25;99361.78;;;13.46;71.11
21904;BME280;11116;51.554;7.812;2022-09-29T11:26:05;99364.66;;;14.26;70.51
21904;BME280;11116;51.554;7.812;2022-09-29T11:28:53;99356.53;;;14.86;69.42
21904;BME280;11116;51.554;7.812;2022-09-29T11:31:36;99354.78;;;15.14;68.51
21904;BME280;11116;51.554;7.812;2022-09-29T11:34:30;99356.00;;;15.96;65.78
21904;BME280;11116;51.554;7.812;2022-09-29T11:37:09;99351.56;;;15.40;66.95
21904;BME280;11116;51.554;7.812;2022-09-29T11:39:44;99354.50;;;15.87;66.40
21904;BME280;11116;51.554;7.812;2022-09-29T11:42:26;99354.59;;;16.00;63.68
21904;BME280;11116;51.554;7.812;2022-09-29T11:45:01;99352.84;;;15.86;65.08
21904;BME280;11116;51.554;7.812;2022-09-29T11:47:49;99352.09;;;16.61;62.55
21904;BME280;11116;51.554;7.812;2022-09-29T11:50:32;99350.41;;;16.94;60.77
21904;BME280;11116;51.554;7.812;2022-09-29T11:56:21;99362.75;;;16.54;63.67
21904;BME280;11116;51.554;7.812;2022-09-29T11:59:05;99357.66;;;16.59;62.47
21904;BME280;11116;51.554;7.812;2022-09-29T12:01:47;99357.16;;;16.90;63.37
21904;BME280;11116;51.554;7.812;2022-09-29T12:04:26;99356.19;;;15.10;62.55
21904;BME280;11116;51.554;7.812;2022-09-29T12:07:03;99361.88;;;14.71;66.77
21904;BME280;11116;51.554;7.812;2022-09-29T12:09:57;99362.31;;;14.16;67.38
21904;BME280;11116;51.554;7.812;2022-09-29T12:12:36;99368.00;;;14.28;67.50
21904;BME280;11116;51.554;7.812;2022-09-29T12:15:13;99349.56;;;15.63;65.63
21904;BME280;11116;51.554;7.812;2022-09-29T12:17:46;99350.88;;;16.57;63.71
21904;BME280;11116;51.554;7.812;2022-09-29T12:20:17;99356.56;;;16.19;62.57
21904;BME280;11116;51.554;7.812;2022-09-29T12:22:47;99361.59;;;16.35;65.42
21904;BME280;11116;51.554;7.812;2022-09-29T12:25:18;99369.91;;;15.70;65.21
21904;BME280;11116;51.554;7.812;2022-09-29T12:27:53;99366.91;;;15.38;66.67
21904;BME280;11116;51.554;7.812;2022-09-29T12:30:23;99368.34;;;15.55;68.72
21904;BME280;11116;51.554;7.812;2022-09-29T12:32:54;99361.50;;;15.10;66.15
21904;BME280;11116;51.554;7.812;2022-09-29T12:35:29;99367.38;;;14.40;66.19
21904;BME280;11116;51.554;7.812;2022-09-29T12:38:05;99368.88;;;14.05;68.43
21904;BME280;11116;51.554;7.812;2022-09-29T12:40:38;99374.06;;;13.62;71.04
21904;BME280;11116;51.554;7.812;2022-09-29T12:43:13;99368.44;;;13.79;69.22
21904;BME280;11116;51.554;7.812;2022-09-29T12:45:50;99368.41;;;14.16;70.17
21904;BME280;11116;51.554;7.812;2022-09-29T12:48:37;99367.09;;;13.83;68.77
21904;BME280;11116;51.554;7.812;2022-09-29T12:51:12;99361.59;;;14.51;67.65
21904;BME280;11116;51.554;7.812;2022-09-29T12:53:58;99367.22;;;13.90;67.22
21904;BME280;11116;51.554;7.812;2022-09-29T12:56:29;99363.16;;;13.94;67.78
21904;BME280;11116;51.554;7.812;2022-09-29T12:59:04;99360.03;;;13.90;67.82
21904;BME280;11116;51.554;7.812;2022-09-29T13:01:34;99360.34;;;13.95;67.14
21904;BME280;11116;51.554;7.812;2022-09-29T13:04:30;99360.19;;;14.26;67.64
21904;BME280;11116;51.554;7.812;2022-09-29T13:10:31;99370.91;;;14.18;70.09
21904;BME280;11116;51.554;7.812;2022-09-29T13:13:26;99369.31;;;13.94;71.41
21904;BME280;11116;51.554;7.812;2022-09-29T13:16:05;99383.69;;;13.63;73.07
21904;BME280;11116;51.554;7.812;2022-09-29T13:21:37;99381.34;;;14.20;69.43
21904;BME280;11116;51.554;7.812;2022-09-29T13:24:27;99379.50;;;14.20;70.17
21904;BME280;11116;51.554;7.812;2022-09-29T13:27:13;99367.78;;;14.14;69.07
21904;BME280;11116;51.554;7.812;2022-09-29T13:29:45;99372.53;;;14.04;69.33
21904;BME280;11116;51.554;7.812;2022-09-29T13:32:15;99364.59;;;14.04;66.38
21904;BME280;11116;51.554;7.812;2022-09-29T13:34:46;99373.34;;;14.05;67.68
21904;BME280;11116;51.554;7.812;2022-09-29T13:37:16;99360.81;;;14.28;66.72